TAF Text Data
IDs:
Format:
Raw Decoded Include METAR

Data at: 1239 UTC 23 Jun 2021

KBTV 231120Z 2312/2412 30005KT P6SM FEW050
  FM232300 21005KT P6SM FEW250